createdAt,value
2023-03-23T15:58:54.295Z,98183.41
2023-03-23T16:01:29.294Z,98185.59
2023-03-23T16:04:11.038Z,98184.63
2023-03-23T16:06:38.895Z,98180.41
2023-03-23T16:09:11.105Z,98178.63
2023-03-23T16:11:38.335Z,98185.78
2023-03-23T16:14:05.730Z,98182.28
2023-03-23T16:16:43.578Z,98179.78
2023-03-23T16:19:16.651Z,98185.75
2023-03-23T16:21:44.337Z,98183.47
2023-03-23T16:24:12.152Z,98188.47
2023-03-23T16:26:40.860Z,98183.03
2023-03-23T16:29:28.435Z,98193.31
2023-03-23T16:32:01.662Z,98186.84
2023-03-23T16:34:32.907Z,98181.34
2023-03-23T16:37:00.375Z,98185.84
2023-03-23T16:39:28.363Z,98190.66
2023-03-23T16:41:55.875Z,98187.31
2023-03-23T16:44:23.172Z,98188.66
2023-03-23T16:46:50.530Z,98200.47
2023-03-23T16:49:17.949Z,98198.28
2023-03-23T16:51:45.318Z,98195.50
2023-03-23T16:54:12.696Z,98184.03
2023-03-23T16:56:40.249Z,98183.53
2023-03-23T16:59:07.756Z,98181.69
2023-03-23T17:01:35.205Z,98192.00
2023-03-23T17:04:02.506Z,98195.97
2023-03-23T17:06:29.940Z,98197.13
2023-03-23T17:08:57.180Z,98189.03
2023-03-23T17:11:24.639Z,98190.34
2023-03-23T17:13:51.963Z,98188.69
2023-03-23T17:16:19.218Z,98196.66
2023-03-23T17:18:46.738Z,98184.84
2023-03-23T17:21:13.911Z,98188.50
2023-03-23T17:23:41.153Z,98193.00
2023-03-23T17:26:08.600Z,98182.38
2023-03-23T17:28:36.217Z,98174.25
2023-03-23T17:31:03.631Z,98175.09
2023-03-23T17:33:30.802Z,98162.09
2023-03-23T17:36:04.727Z,98177.16
2023-03-23T17:38:32.457Z,98164.56
2023-03-23T17:41:04.200Z,98170.88
2023-03-23T17:43:31.820Z,98176.66
2023-03-23T17:45:59.066Z,98168.88
2023-03-23T17:48:26.949Z,98176.47
2023-03-23T17:50:57.664Z,98171.19
2023-03-23T17:53:26.955Z,98182.25
2023-03-23T17:55:55.197Z,98183.53
2023-03-23T17:58:25.442Z,98172.56
2023-03-23T18:00:53.830Z,98175.38
2023-03-23T18:03:22.007Z,98174.16
2023-03-23T18:05:51.020Z,98177.03
2023-03-23T18:08:19.140Z,98176.28
2023-03-23T18:10:47.156Z,98177.03
2023-03-23T18:13:14.712Z,98173.28
2023-03-23T18:15:46.671Z,98177.97
2023-03-23T18:18:14.470Z,98173.38
2023-03-23T18:20:41.891Z,98183.72
2023-03-23T18:23:09.605Z,98180.16
2023-03-23T18:25:38.137Z,98177.34
2023-03-23T18:28:07.129Z,98177.81
2023-03-23T18:30:35.485Z,98185.50
2023-03-23T18:33:02.821Z,98177.06
2023-03-23T18:35:30.887Z,98168.19
2023-03-23T18:37:58.614Z,98176.66
2023-03-23T18:40:25.860Z,98173.53
2023-03-23T18:42:53.134Z,98169.38
2023-03-23T18:45:20.699Z,98166.88
2023-03-23T18:47:48.018Z,98167.50
2023-03-23T18:50:15.821Z,98178.72
2023-03-23T18:52:44.852Z,98180.22
2023-03-23T18:55:12.249Z,98170.94
2023-03-23T18:57:40.808Z,98175.88
2023-03-23T19:00:10.117Z,98171.72
2023-03-23T19:02:39.669Z,98169.38
2023-03-23T19:05:09.579Z,98174.84
2023-03-23T19:07:38.425Z,98186.22
2023-03-23T19:10:06.937Z,98188.94
2023-03-23T19:12:34.171Z,98190.28
2023-03-23T19:15:01.542Z,98192.81
2023-03-23T19:17:30.966Z,98196.44
2023-03-23T19:19:58.194Z,98190.06
2023-03-23T19:22:25.497Z,98190.50
2023-03-23T19:24:54.721Z,98196.22
2023-03-23T19:27:21.985Z,98196.38
2023-03-23T19:29:49.212Z,98198.84
2023-03-23T19:32:17.219Z,98193.88
2023-03-23T19:34:50.424Z,98192.41
2023-03-23T19:37:18.580Z,98185.50
2023-03-23T19:39:46.216Z,98190.75
2023-03-23T19:42:16.783Z,98196.28
2023-03-23T19:44:44.837Z,98192.69
2023-03-23T19:47:12.648Z,98187.72
2023-03-23T19:49:40.820Z,98186.19
2023-03-23T19:52:12.619Z,98187.97
2023-03-23T19:54:41.529Z,98188.53
2023-03-23T19:57:10.510Z,98188.44
2023-03-23T19:59:39.306Z,98190.34
2023-03-23T20:02:07.923Z,98191.19
2023-03-23T20:04:36.488Z,98184.59
2023-03-23T20:07:07.549Z,98186.97
2023-03-23T20:09:36.708Z,98174.59
2023-03-23T20:12:05.098Z,98173.75
2023-03-23T20:14:34.494Z,98178.13
2023-03-23T20:17:02.276Z,98178.22
2023-03-23T20:19:29.541Z,98172.19
2023-03-23T20:21:56.631Z,98172.19
2023-03-23T20:24:23.848Z,98160.72
2023-03-23T20:26:51.207Z,98165.00
2023-03-23T20:29:18.631Z,98167.94
2023-03-23T20:31:46.721Z,98164.81
2023-03-23T20:34:28.698Z,98166.81
2023-03-23T20:36:57.785Z,98161.31
2023-03-23T20:39:30.762Z,98161.38
2023-03-23T20:42:05.931Z,98158.97
2023-03-23T20:44:36.123Z,98159.50
2023-03-23T20:47:04.001Z,98150.13
2023-03-23T20:49:31.960Z,98139.34
2023-03-23T20:51:59.830Z,98145.44
2023-03-23T20:54:28.130Z,98136.28
2023-03-23T20:56:58.430Z,98145.84
2023-03-23T20:59:26.346Z,98144.09
2023-03-23T21:01:53.824Z,98142.50
2023-03-23T21:04:27.148Z,98135.34
2023-03-23T21:06:55.947Z,98133.84
2023-03-23T21:09:25.236Z,98128.38
2023-03-23T21:11:52.992Z,98136.34
2023-03-23T21:14:20.508Z,98123.19
2023-03-23T21:16:48.654Z,98129.81
2023-03-23T21:19:17.077Z,98127.56
2023-03-23T21:21:56.813Z,98121.00
2023-03-23T21:24:31.932Z,98113.97
2023-03-23T21:27:02.989Z,98118.03
2023-03-23T21:29:30.897Z,98120.09
2023-03-23T21:32:07.793Z,98112.69
2023-03-23T21:34:37.766Z,98103.47
2023-03-23T21:37:05.356Z,98098.63
2023-03-23T21:39:33.664Z,98096.41
2023-03-23T21:42:02.556Z,98089.25
2023-03-23T21:44:29.757Z,98092.38
2023-03-23T21:46:57.060Z,98087.38
2023-03-23T21:49:24.248Z,98080.25
2023-03-23T21:51:51.528Z,98070.44
2023-03-23T21:54:20.997Z,98077.94
2023-03-23T21:56:48.611Z,98076.69
2023-03-23T21:59:16.635Z,98072.81
2023-03-23T22:01:43.853Z,98070.22
2023-03-23T22:04:11.249Z,98065.38
2023-03-23T22:06:38.631Z,98067.94
2023-03-23T22:09:07.004Z,98060.78
2023-03-23T22:11:34.416Z,98054.84
2023-03-23T22:14:02.639Z,98045.06
2023-03-23T22:16:31.586Z,98035.06
2023-03-23T22:19:02.213Z,98037.50
2023-03-23T22:21:30.413Z,98030.66
2023-03-23T22:24:00.576Z,98040.53
2023-03-23T22:26:29.617Z,98014.91
2023-03-23T22:28:59.428Z,98015.50
2023-03-23T22:31:32.592Z,98003.25
2023-03-23T22:34:01.452Z,98006.06
2023-03-23T22:36:31.251Z,97998.28
2023-03-23T22:39:00.159Z,97997.25
2023-03-23T22:41:36.868Z,97981.84
2023-03-23T22:44:11.990Z,97978.31
2023-03-23T22:46:41.314Z,97971.88
2023-03-23T22:49:08.563Z,97968.56
2023-03-23T22:51:37.029Z,97972.28
2023-03-23T22:54:06.158Z,97961.47
2023-03-23T22:56:34.304Z,97974.88
2023-03-23T22:59:01.956Z,97968.09
2023-03-23T23:01:29.233Z,97970.16
2023-03-23T23:03:56.786Z,97979.56
2023-03-23T23:06:25.623Z,97967.59
2023-03-23T23:08:53.090Z,97964.13
2023-03-23T23:11:26.068Z,97962.19
2023-03-23T23:13:53.541Z,97955.06
2023-03-23T23:16:22.185Z,97955.34
2023-03-23T23:18:49.915Z,97964.72
2023-03-23T23:21:25.979Z,97956.75
2023-03-23T23:23:54.684Z,97963.16
2023-03-23T23:26:23.229Z,97972.53
2023-03-23T23:28:51.925Z,97968.97
2023-03-23T23:31:28.990Z,97961.72
2023-03-23T23:33:59.819Z,97977.41
2023-03-23T23:36:29.982Z,97984.03
2023-03-23T23:39:03.462Z,98001.91
2023-03-23T23:41:31.084Z,98011.97
2023-03-23T23:43:59.703Z,98005.25
2023-03-23T23:46:30.669Z,98012.34
2023-03-23T23:49:00.137Z,98023.56
2023-03-23T23:51:29.068Z,98022.84
2023-03-23T23:53:58.794Z,98018.25
2023-03-23T23:56:27.035Z,98015.44
2023-03-23T23:58:54.494Z,98001.72
